createdAt,value
2022-11-09T00:00:46.397Z,96130.81
2022-11-09T00:02:18.028Z,96131.59
2022-11-09T00:03:53.703Z,96139.22
2022-11-09T00:05:25.342Z,96136.34
2022-11-09T00:06:56.971Z,96138.22
2022-11-09T00:08:28.859Z,96135.25
2022-11-09T00:10:00.792Z,96141.88
2022-11-09T00:11:32.534Z,96143.66
2022-11-09T00:13:05.592Z,96136.25
2022-11-09T00:14:38.782Z,96136.03
2022-11-09T00:16:11.364Z,96124.84
2022-11-09T00:17:43.030Z,96137.47
2022-11-09T00:19:14.776Z,96142.44
2022-11-09T00:20:48.428Z,96136.91
2022-11-09T00:22:20.429Z,96135.25
2022-11-09T00:23:52.358Z,96134.13
2022-11-09T00:25:24.117Z,96136.78
2022-11-09T00:26:55.813Z,96146.16
2022-11-09T00:28:29.005Z,96145.25
2022-11-09T00:30:00.638Z,96139.81
2022-11-09T00:31:32.545Z,96144.63
2022-11-09T00:33:04.168Z,96135.75
2022-11-09T00:34:35.791Z,96132.66
2022-11-09T00:36:09.059Z,96123.91
2022-11-09T00:37:40.748Z,96130.16
2022-11-09T00:39:12.490Z,96126.72
2022-11-09T00:40:44.071Z,96143.66
2022-11-09T00:42:15.874Z,96142.38
2022-11-09T00:43:49.091Z,96138.75
2022-11-09T00:45:20.920Z,96130.94
2022-11-09T00:46:52.566Z,96135.19
2022-11-09T00:48:24.310Z,96138.97
2022-11-09T00:49:56.811Z,96146.38
2022-11-09T00:51:28.482Z,96134.31
2022-11-09T00:53:00.167Z,96136.84
2022-11-09T00:54:31.811Z,96132.47
2022-11-09T00:56:04.597Z,96140.50
2022-11-09T00:57:36.206Z,96144.03
2022-11-09T00:59:10.196Z,96137.97
2022-11-09T01:00:41.886Z,96135.84
2022-11-09T01:02:13.573Z,96129.41
2022-11-09T01:03:45.654Z,96132.50
2022-11-09T01:05:17.735Z,96132.88
2022-11-09T01:06:49.429Z,96131.75
2022-11-09T01:08:21.132Z,96134.88
2022-11-09T01:09:52.845Z,96142.84
2022-11-09T01:11:24.794Z,96131.88
2022-11-09T01:12:56.483Z,96135.78
2022-11-09T01:14:29.585Z,96128.88
2022-11-09T01:16:04.940Z,96137.69
2022-11-09T01:17:36.607Z,96139.69
2022-11-09T01:19:08.282Z,96145.69
2022-11-09T01:20:40.662Z,96141.75
2022-11-09T01:22:12.666Z,96149.28
2022-11-09T01:23:44.395Z,96143.47
2022-11-09T01:25:16.203Z,96128.81
2022-11-09T01:26:47.852Z,96128.50
2022-11-09T01:28:19.449Z,96121.41
2022-11-09T01:29:52.495Z,96121.25
2022-11-09T01:31:24.192Z,96116.56
2022-11-09T01:32:55.826Z,96121.56
2022-11-09T01:34:28.004Z,96108.59
2022-11-09T01:36:02.631Z,96113.53
2022-11-09T01:37:34.252Z,96116.88
2022-11-09T01:39:05.908Z,96108.16
2022-11-09T01:40:38.294Z,96111.16
2022-11-09T01:42:09.935Z,96105.16
2022-11-09T01:43:41.579Z,96099.16
2022-11-09T01:45:26.172Z,96106.78
2022-11-09T01:46:59.885Z,96096.19
2022-11-09T01:48:36.882Z,96110.25
2022-11-09T01:50:08.996Z,96103.47
2022-11-09T01:51:42.778Z,96104.69
2022-11-09T01:53:16.886Z,96108.84
2022-11-09T01:54:53.883Z,96109.28
2022-11-09T01:56:25.645Z,96106.16
2022-11-09T01:57:59.435Z,96109.38
2022-11-09T01:59:33.533Z,96110.63
2022-11-09T02:01:11.176Z,96114.72
2022-11-09T02:02:44.352Z,96119.94
2022-11-09T02:04:18.902Z,96120.69
2022-11-09T02:05:50.528Z,96124.13
2022-11-09T02:07:22.148Z,96115.78
2022-11-09T02:08:53.855Z,96130.66
2022-11-09T02:10:27.019Z,96127.88
2022-11-09T02:11:58.848Z,96121.63
2022-11-09T02:13:30.473Z,96122.94
2022-11-09T02:15:02.694Z,96122.03
2022-11-09T02:16:35.908Z,96122.78
2022-11-09T02:18:07.641Z,96124.50
2022-11-09T02:19:39.368Z,96123.03
2022-11-09T02:21:12.471Z,96118.72
2022-11-09T02:22:44.238Z,96114.94
2022-11-09T02:24:15.836Z,96124.50
2022-11-09T02:25:49.608Z,96123.72
2022-11-09T02:27:21.407Z,96122.94
2022-11-09T02:28:54.276Z,96132.13
2022-11-09T02:30:25.962Z,96126.94
2022-11-09T02:31:59.906Z,96121.69
2022-11-09T02:33:42.427Z,96120.13
2022-11-09T02:35:14.174Z,96115.84
2022-11-09T02:36:47.386Z,96115.88
2022-11-09T02:38:19.121Z,96116.66
2022-11-09T02:39:50.730Z,96110.88
2022-11-09T02:41:22.525Z,96111.69
2022-11-09T02:42:54.277Z,96116.16
2022-11-09T02:44:26.024Z,96112.97
2022-11-09T02:45:57.769Z,96121.88
2022-11-09T02:47:29.390Z,96113.56
2022-11-09T02:49:01.156Z,96126.84
2022-11-09T02:50:32.989Z,96113.03
2022-11-09T02:52:06.199Z,96114.66
2022-11-09T02:53:38.059Z,96117.63
2022-11-09T02:55:09.924Z,96117.66
2022-11-09T02:56:41.636Z,96123.09
2022-11-09T02:58:13.353Z,96127.78
2022-11-09T02:59:44.976Z,96123.03
2022-11-09T03:01:16.672Z,96114.09
2022-11-09T03:02:49.128Z,96110.06
2022-11-09T03:04:20.762Z,96110.41
2022-11-09T03:05:52.514Z,96106.22
2022-11-09T03:07:25.668Z,96107.59
2022-11-09T03:08:57.326Z,96113.78
2022-11-09T03:10:28.961Z,96105.16
2022-11-09T03:12:20.714Z,96102.28
2022-11-09T03:13:52.413Z,96111.81
2022-11-09T03:15:24.049Z,96095.03
2022-11-09T03:16:55.666Z,96107.78
2022-11-09T03:18:27.461Z,96091.16
2022-11-09T03:19:59.067Z,96103.16
2022-11-09T03:21:30.674Z,96099.97
2022-11-09T03:23:03.709Z,96100.09
2022-11-09T03:24:35.363Z,96102.91
2022-11-09T03:26:07.030Z,96114.41
2022-11-09T03:27:38.849Z,96114.53
2022-11-09T03:29:10.524Z,96114.06
2022-11-09T03:30:42.198Z,96117.44
2022-11-09T03:32:13.830Z,96115.56
2022-11-09T03:33:45.442Z,96121.75
2022-11-09T03:35:17.075Z,96120.38
2022-11-09T03:36:48.763Z,96118.94
2022-11-09T03:38:21.809Z,96121.38
2022-11-09T03:39:53.462Z,96113.31
2022-11-09T03:41:25.247Z,96120.47
2022-11-09T03:42:56.911Z,96122.16
2022-11-09T03:44:28.616Z,96118.63
2022-11-09T03:46:00.380Z,96112.44
2022-11-09T03:47:32.027Z,96112.00
2022-11-09T03:49:03.846Z,96112.19
2022-11-09T03:50:35.682Z,96112.00
2022-11-09T03:52:07.330Z,96122.47
2022-11-09T03:53:40.350Z,96122.03
2022-11-09T03:55:12.027Z,96131.47
2022-11-09T03:56:43.688Z,96129.66
2022-11-09T03:58:15.300Z,96121.97
2022-11-09T03:59:46.942Z,96122.28
2022-11-09T04:01:18.829Z,96127.56
2022-11-09T04:02:50.614Z,96120.94
2022-11-09T04:04:22.224Z,96127.78
2022-11-09T04:05:53.870Z,96136.63
2022-11-09T04:07:25.526Z,96139.84
2022-11-09T04:08:58.538Z,96148.28
2022-11-09T04:10:30.152Z,96151.97
2022-11-09T04:12:01.778Z,96159.28
2022-11-09T04:13:33.398Z,96153.56
2022-11-09T04:15:06.058Z,96155.94
2022-11-09T04:16:38.452Z,96153.72
2022-11-09T04:18:12.694Z,96164.91
2022-11-09T04:19:44.324Z,96170.22
2022-11-09T04:21:19.140Z,96176.59
2022-11-09T04:22:55.349Z,96173.22
2022-11-09T04:24:28.355Z,96169.75
2022-11-09T04:26:00.121Z,96171.31
2022-11-09T04:27:31.860Z,96175.19
2022-11-09T04:29:03.634Z,96176.47
2022-11-09T04:30:35.898Z,96182.47
2022-11-09T04:32:07.494Z,96187.47
2022-11-09T04:33:39.220Z,96197.72
2022-11-09T04:35:10.889Z,96198.88
2022-11-09T04:36:42.502Z,96196.44
2022-11-09T04:38:14.174Z,96189.47
2022-11-09T04:39:47.224Z,96193.78
2022-11-09T04:41:18.883Z,96198.06
2022-11-09T04:42:50.563Z,96192.59
2022-11-09T04:44:22.183Z,96195.41
2022-11-09T04:45:53.935Z,96196.50
2022-11-09T04:47:25.566Z,96205.41
2022-11-09T04:48:57.221Z,96204.59
2022-11-09T04:50:29.000Z,96203.47
2022-11-09T04:52:00.649Z,96203.38
2022-11-09T04:53:32.276Z,96212.28
2022-11-09T04:55:06.712Z,96206.84
2022-11-09T04:56:38.362Z,96209.94
2022-11-09T04:58:10.131Z,96214.81
2022-11-09T04:59:41.750Z,96211.31
2022-11-09T05:01:13.950Z,96209.94
2022-11-09T05:02:45.583Z,96206.72
2022-11-09T05:04:17.354Z,96210.34
2022-11-09T05:05:49.095Z,96207.69
2022-11-09T05:07:20.773Z,96204.72
2022-11-09T05:08:52.387Z,96201.72
2022-11-09T05:10:25.410Z,96204.25
2022-11-09T05:11:57.132Z,96199.72
2022-11-09T05:13:28.755Z,96202.19
2022-11-09T05:15:00.442Z,96207.47
2022-11-09T05:16:32.154Z,96217.00
2022-11-09T05:18:04.196Z,96207.25
2022-11-09T05:19:35.938Z,96209.28
2022-11-09T05:21:07.704Z,96205.88
2022-11-09T05:22:58.666Z,96206.97
2022-11-09T05:24:30.322Z,96206.97
2022-11-09T05:26:03.451Z,96201.53
2022-11-09T05:27:35.060Z,96209.16
2022-11-09T05:29:07.435Z,96216.47
2022-11-09T05:30:39.155Z,96220.22
2022-11-09T05:32:10.759Z,96219.91
2022-11-09T05:33:42.439Z,96226.59
2022-11-09T05:35:14.415Z,96217.66
2022-11-09T05:36:46.037Z,96217.97
2022-11-09T05:38:17.710Z,96220.75
2022-11-09T05:39:49.432Z,96228.94
2022-11-09T05:41:22.555Z,96227.41
2022-11-09T05:42:56.007Z,96227.19
2022-11-09T05:44:27.683Z,96227.38
2022-11-09T05:46:02.557Z,96230.03
2022-11-09T05:47:38.644Z,96225.03
2022-11-09T05:49:10.309Z,96234.09
2022-11-09T05:50:42.654Z,96228.91
2022-11-09T05:52:14.337Z,96235.69
2022-11-09T05:53:47.050Z,96232.59
2022-11-09T05:55:18.913Z,96247.94
2022-11-09T05:56:51.889Z,96239.41
2022-11-09T05:58:23.561Z,96245.69
2022-11-09T05:59:55.223Z,96243.03
2022-11-09T06:01:26.838Z,96244.00
2022-11-09T06:03:02.155Z,96246.34
2022-11-09T06:04:33.819Z,96242.91
2022-11-09T06:06:08.553Z,96246.66
2022-11-09T06:07:40.757Z,96248.28
2022-11-09T06:09:12.453Z,96244.88
2022-11-09T06:10:44.298Z,96243.13
2022-11-09T06:12:17.291Z,96248.09
2022-11-09T06:13:49.239Z,96245.44
2022-11-09T06:15:20.939Z,96249.19
2022-11-09T06:16:52.574Z,96251.06
2022-11-09T06:18:24.334Z,96248.22
2022-11-09T06:19:55.969Z,96251.06
2022-11-09T06:21:27.625Z,96250.75
2022-11-09T06:23:03.154Z,96249.75
2022-11-09T06:24:38.454Z,96255.22
2022-11-09T06:26:10.830Z,96260.81
2022-11-09T06:27:50.072Z,96262.84
2022-11-09T06:29:21.760Z,96271.06
2022-11-09T06:30:53.464Z,96270.16
2022-11-09T06:32:25.063Z,96284.09
2022-11-09T06:33:56.772Z,96285.75
2022-11-09T06:35:28.497Z,96291.41
2022-11-09T06:37:00.120Z,96289.72
2022-11-09T06:38:31.771Z,96287.53
2022-11-09T06:40:03.451Z,96292.50
2022-11-09T06:41:35.212Z,96291.41
2022-11-09T06:43:08.362Z,96299.94
2022-11-09T06:44:40.072Z,96300.97
2022-11-09T06:46:19.908Z,96295.22
2022-11-09T06:47:51.693Z,96297.38
2022-11-09T06:49:23.493Z,96302.69
2022-11-09T06:50:55.118Z,96298.91
2022-11-09T06:52:29.990Z,96304.47
2022-11-09T06:54:01.790Z,96297.06
2022-11-09T06:55:34.235Z,96302.50
2022-11-09T06:57:05.987Z,96300.50
2022-11-09T06:58:39.504Z,96305.19
2022-11-09T07:00:15.557Z,96311.97
2022-11-09T07:01:47.263Z,96302.22
2022-11-09T07:03:20.060Z,96306.97
2022-11-09T07:04:51.931Z,96315.06
2022-11-09T07:06:23.949Z,96316.72
2022-11-09T07:07:55.627Z,96326.59
2022-11-09T07:09:27.392Z,96316.94
2022-11-09T07:11:03.386Z,96329.25
2022-11-09T07:12:35.741Z,96326.84
2022-11-09T07:14:09.055Z,96325.91
2022-11-09T07:15:40.812Z,96324.94
2022-11-09T07:17:12.534Z,96325.91
2022-11-09T07:18:45.055Z,96318.84
2022-11-09T07:20:16.922Z,96316.06
2022-11-09T07:21:48.726Z,96327.84
2022-11-09T07:23:20.735Z,96327.38
2022-11-09T07:24:52.734Z,96322.41
2022-11-09T07:26:24.397Z,96327.72
2022-11-09T07:27:56.321Z,96321.72
2022-11-09T07:29:29.375Z,96321.19
2022-11-09T07:31:01.258Z,96315.97
2022-11-09T07:33:07.011Z,96323.19
2022-11-09T07:34:25.117Z,96317.53
2022-11-09T07:35:58.308Z,96323.16
2022-11-09T07:37:30.003Z,96323.63
2022-11-09T07:39:01.696Z,96318.06
2022-11-09T07:40:33.530Z,96333.94
2022-11-09T07:42:05.249Z,96332.38
2022-11-09T07:43:36.857Z,96337.47
2022-11-09T07:45:10.443Z,96326.16
2022-11-09T07:46:42.775Z,96330.47
2022-11-09T07:48:14.744Z,96337.91
2022-11-09T07:49:46.587Z,96337.47
2022-11-09T07:51:18.255Z,96340.34
2022-11-09T07:52:50.077Z,96335.47
2022-11-09T07:54:21.765Z,96343.56
2022-11-09T07:55:56.834Z,96336.94
2022-11-09T07:57:28.426Z,96347.44
2022-11-09T07:59:00.061Z,96336.03
2022-11-09T08:00:34.320Z,96337.56
2022-11-09T08:02:05.977Z,96334.66
2022-11-09T08:03:40.440Z,96335.44
2022-11-09T08:05:12.141Z,96340.34
2022-11-09T08:06:43.927Z,96342.56
2022-11-09T08:08:16.578Z,96342.78
2022-11-09T08:09:48.335Z,96337.22
2022-11-09T08:11:19.988Z,96337.34
2022-11-09T08:12:55.329Z,96338.78
2022-11-09T08:14:27.009Z,96336.03
2022-11-09T08:16:02.924Z,96338.78
2022-11-09T08:17:34.586Z,96342.56
2022-11-09T08:19:10.408Z,96344.53
2022-11-09T08:20:42.048Z,96353.19
2022-11-09T08:22:13.708Z,96356.63
2022-11-09T08:23:45.447Z,96347.78
2022-11-09T08:25:17.399Z,96344.09
2022-11-09T08:26:49.037Z,96346.31
2022-11-09T08:28:21.204Z,96350.00
2022-11-09T08:29:53.109Z,96351.13
2022-11-09T08:31:29.352Z,96347.88
2022-11-09T08:33:01.913Z,96339.78
2022-11-09T08:34:33.547Z,96333.69
2022-11-09T08:36:09.623Z,96340.66
2022-11-09T08:37:41.377Z,96339.91
2022-11-09T08:39:13.076Z,96355.53
2022-11-09T08:40:46.914Z,96355.97
2022-11-09T08:42:18.730Z,96345.84
2022-11-09T08:43:50.432Z,96347.16
2022-11-09T08:45:22.202Z,96348.28
2022-11-09T08:46:55.238Z,96346.72
2022-11-09T08:48:26.926Z,96351.84
2022-11-09T08:49:59.065Z,96352.28
2022-11-09T08:51:30.878Z,96348.94
2022-11-09T08:53:03.604Z,96343.72
2022-11-09T08:54:36.666Z,96333.59
2022-11-09T08:56:08.414Z,96329.56
2022-11-09T08:57:40.048Z,96329.66
2022-11-09T08:59:11.811Z,96327.53
2022-11-09T09:00:43.517Z,96333.09
2022-11-09T09:02:17.347Z,96332.94
2022-11-09T09:03:49.069Z,96335.34
2022-11-09T09:05:20.827Z,96341.09
2022-11-09T09:06:52.598Z,96330.19
2022-11-09T09:08:25.315Z,96324.09
2022-11-09T09:09:57.110Z,96321.50
2022-11-09T09:11:31.798Z,96325.59
2022-11-09T09:13:04.802Z,96320.94
2022-11-09T09:14:36.420Z,96322.94
2022-11-09T09:16:11.805Z,96326.53
2022-11-09T09:17:45.450Z,96319.50
2022-11-09T09:19:21.696Z,96320.59
2022-11-09T09:20:56.027Z,96324.81
2022-11-09T09:22:29.298Z,96330.59
2022-11-09T09:24:01.374Z,96324.22
2022-11-09T09:25:40.435Z,96326.13
2022-11-09T09:27:12.335Z,96322.53
2022-11-09T09:28:45.822Z,96333.28
2022-11-09T09:30:18.122Z,96324.94
2022-11-09T09:31:50.347Z,96326.13
2022-11-09T09:33:26.701Z,96321.91
2022-11-09T09:34:58.555Z,96317.34
2022-11-09T09:36:30.253Z,96323.22
2022-11-09T09:38:02.062Z,96319.06
2022-11-09T09:39:33.904Z,96310.38
2022-11-09T09:41:06.292Z,96318.88
2022-11-09T09:42:42.457Z,96315.53
2022-11-09T09:44:29.164Z,96316.84
2022-11-09T09:46:01.410Z,96314.31
2022-11-09T09:47:44.259Z,96312.78
2022-11-09T09:49:40.582Z,96305.63
2022-11-09T09:51:18.993Z,96308.41
2022-11-09T09:55:01.223Z,96308.91
2022-11-09T09:56:37.303Z,96309.94
2022-11-09T09:58:11.570Z,96305.81
2022-11-09T09:59:45.633Z,96307.44
2022-11-09T10:01:20.160Z,96305.47
2022-11-09T10:02:52.256Z,96316.50
2022-11-09T10:04:30.897Z,96305.81
2022-11-09T10:06:07.527Z,96312.88
2022-11-09T10:07:41.639Z,96307.88
2022-11-09T10:09:22.683Z,96308.81
2022-11-09T10:11:00.692Z,96307.84
2022-11-09T10:12:37.164Z,96311.06
2022-11-09T10:14:39.375Z,96310.25
2022-11-09T10:16:14.636Z,96298.91
2022-11-09T10:17:59.373Z,96297.34
2022-11-09T10:19:43.726Z,96294.41
2022-11-09T10:21:25.926Z,96290.69
2022-11-09T10:23:13.126Z,96292.22
2022-11-09T10:25:18.920Z,96297.16
2022-11-09T10:26:44.922Z,96293.84
2022-11-09T10:28:17.390Z,96287.38
2022-11-09T10:29:53.133Z,96289.34
2022-11-09T10:31:31.863Z,96280.94
2022-11-09T10:33:15.253Z,96284.78
2022-11-09T10:34:56.440Z,96290.97
2022-11-09T10:36:32.942Z,96294.22
2022-11-09T10:38:05.051Z,96292.69
2022-11-09T10:39:44.589Z,96299.66
2022-11-09T10:41:20.548Z,96292.41
2022-11-09T10:42:54.259Z,96296.97
2022-11-09T10:44:32.070Z,96299.44
2022-11-09T10:46:05.597Z,96298.38
2022-11-09T10:47:47.023Z,96301.88
2022-11-09T10:49:22.652Z,96297.31
2022-11-09T10:50:55.811Z,96295.69
2022-11-09T10:52:32.807Z,96287.34
2022-11-09T10:54:14.310Z,96282.75
2022-11-09T10:55:53.409Z,96281.16
2022-11-09T10:57:25.296Z,96289.22
2022-11-09T10:58:56.928Z,96285.50
2022-11-09T11:00:28.621Z,96288.88
2022-11-09T11:02:02.376Z,96295.00
2022-11-09T11:03:35.424Z,96287.53
2022-11-09T11:05:28.837Z,96283.59
2022-11-09T11:07:20.474Z,96286.34
2022-11-09T11:08:53.546Z,96281.91
2022-11-09T11:10:25.395Z,96285.06
2022-11-09T11:12:13.300Z,96279.66
2022-11-09T11:13:45.057Z,96289.94
2022-11-09T11:15:25.117Z,96288.81
2022-11-09T11:16:56.740Z,96288.22
2022-11-09T11:18:28.432Z,96286.69
2022-11-09T11:20:07.355Z,96290.91
2022-11-09T11:21:39.012Z,96282.34
2022-11-09T11:23:14.452Z,96278.75
2022-11-09T11:24:47.992Z,96293.88
2022-11-09T11:26:30.127Z,96290.47
2022-11-09T11:28:04.642Z,96284.19
2022-11-09T11:29:41.504Z,96279.97
2022-11-09T11:31:15.216Z,96276.16
2022-11-09T11:32:50.489Z,96272.78
2022-11-09T11:34:53.545Z,96274.75
2022-11-09T11:36:19.353Z,96271.22
2022-11-09T11:37:56.926Z,96266.16
2022-11-09T11:39:37.642Z,96271.78
2022-11-09T11:41:32.103Z,96272.56
2022-11-09T11:43:30.300Z,96285.63
2022-11-09T11:45:38.526Z,96287.34
2022-11-09T11:47:19.030Z,96285.97
2022-11-09T11:49:24.481Z,96271.91
2022-11-09T11:50:57.294Z,96271.34
2022-11-09T11:52:32.963Z,96267.63
2022-11-09T11:54:09.382Z,96257.47
2022-11-09T11:55:51.628Z,96255.84
2022-11-09T11:57:26.367Z,96252.13
2022-11-09T11:59:22.640Z,96259.56
2022-11-09T12:00:58.676Z,96257.66
2022-11-09T12:03:01.816Z,96260.19
2022-11-09T12:04:49.285Z,96249.56
2022-11-09T12:06:44.142Z,96246.56
2022-11-09T12:08:18.934Z,96242.75
2022-11-09T12:09:59.162Z,96243.88
2022-11-09T12:11:40.177Z,96252.31
2022-11-09T12:13:17.499Z,96238.59
2022-11-09T12:15:01.728Z,96237.81
2022-11-09T12:16:35.697Z,96222.56
2022-11-09T12:18:15.984Z,96223.31
2022-11-09T12:19:56.499Z,96213.47
2022-11-09T12:21:31.479Z,96223.06
2022-11-09T12:23:14.268Z,96219.28
2022-11-09T12:24:49.865Z,96205.97
2022-11-09T12:26:38.696Z,96212.06
2022-11-09T12:28:20.411Z,96212.03
2022-11-09T12:29:56.262Z,96213.16
2022-11-09T12:31:32.916Z,96219.31
2022-11-09T12:33:06.157Z,96219.31
2022-11-09T12:34:39.657Z,96222.31
2022-11-09T12:36:13.895Z,96220.03
2022-11-09T12:37:48.826Z,96217.31
2022-11-09T12:39:22.738Z,96214.28
2022-11-09T12:40:58.470Z,96211.13
2022-11-09T12:42:35.109Z,96216.13
2022-11-09T12:44:16.765Z,96216.13
2022-11-09T12:45:48.878Z,96233.00
2022-11-09T12:47:22.659Z,96218.56
2022-11-09T12:48:54.473Z,96223.53
2022-11-09T12:50:27.881Z,96217.78
2022-11-09T12:51:59.593Z,96218.19
2022-11-09T12:53:33.586Z,96210.22
2022-11-09T12:55:05.951Z,96210.47
2022-11-09T12:56:44.889Z,96212.78
2022-11-09T12:58:21.710Z,96214.38
2022-11-09T12:59:56.022Z,96208.28
2022-11-09T13:01:48.653Z,96214.69
2022-11-09T13:03:25.485Z,96201.63
2022-11-09T13:05:00.691Z,96202.34
2022-11-09T13:06:36.788Z,96206.88
2022-11-09T13:08:17.203Z,96205.69
2022-11-09T13:09:53.620Z,96207.56
2022-11-09T13:11:35.959Z,96218.25
2022-11-09T13:13:22.977Z,96223.47
2022-11-09T13:14:56.938Z,96224.63
2022-11-09T13:16:36.238Z,96225.63
2022-11-09T13:18:23.120Z,96221.41
2022-11-09T13:19:55.359Z,96209.19
2022-11-09T13:21:35.281Z,96211.84
2022-11-09T13:23:47.650Z,96215.66
2022-11-09T13:25:48.382Z,96216.41
2022-11-09T13:27:37.709Z,96222.19
2022-11-09T13:29:26.646Z,96221.81
2022-11-09T13:31:04.861Z,96226.81
2022-11-09T13:32:46.814Z,96228.34
2022-11-09T13:34:50.486Z,96226.34
2022-11-09T13:36:25.577Z,96226.69
2022-11-09T13:38:09.942Z,96229.38
2022-11-09T13:39:45.268Z,96231.69
2022-11-09T13:41:45.354Z,96228.31
2022-11-09T13:43:22.403Z,96230.97
2022-11-09T13:44:54.849Z,96229.84
2022-11-09T13:46:29.586Z,96227.16
2022-11-09T13:48:01.257Z,96222.53
2022-11-09T13:49:49.194Z,96229.44
2022-11-09T13:51:21.537Z,96229.38
2022-11-09T13:52:55.901Z,96235.72
2022-11-09T13:54:29.974Z,96225.03
2022-11-09T13:56:14.163Z,96220.75
2022-11-09T13:57:47.940Z,96221.81
2022-11-09T13:59:22.096Z,96225.63
2022-11-09T14:00:54.004Z,96226.41
2022-11-09T14:02:30.979Z,96225.91
2022-11-09T14:04:04.623Z,96219.03
2022-11-09T14:05:39.816Z,96230.03
2022-11-09T14:07:16.371Z,96230.84
2022-11-09T14:08:48.512Z,96238.28
2022-11-09T14:10:24.300Z,96240.88
2022-11-09T14:12:09.791Z,96240.84
2022-11-09T14:13:53.529Z,96245.03
2022-11-09T14:15:32.483Z,96245.03
2022-11-09T14:17:09.940Z,96247.38
2022-11-09T14:19:01.631Z,96253.47
2022-11-09T14:20:37.591Z,96255.31
2022-11-09T14:22:17.303Z,96259.47
2022-11-09T14:23:56.873Z,96252.53
2022-11-09T14:25:29.005Z,96259.78
2022-11-09T14:27:17.290Z,96253.66
2022-11-09T14:28:52.790Z,96260.91
2022-11-09T14:30:26.608Z,96259.34
2022-11-09T14:32:01.045Z,96273.13
2022-11-09T14:33:35.525Z,96268.00
2022-11-09T14:35:29.286Z,96265.72
2022-11-09T14:37:04.872Z,96271.78
2022-11-09T14:38:44.513Z,96275.59
2022-11-09T14:40:19.508Z,96279.81
2022-11-09T14:41:53.623Z,96276.28
2022-11-09T14:43:29.126Z,96281.63
2022-11-09T14:45:01.790Z,96277.41
2022-11-09T14:46:38.300Z,96276.22
2022-11-09T14:48:20.671Z,96276.28
2022-11-09T14:49:54.834Z,96274.63
2022-11-09T14:51:32.703Z,96277.28
2022-11-09T14:53:07.852Z,96277.41
2022-11-09T14:54:45.591Z,96281.84
2022-11-09T14:56:20.466Z,96278.84
2022-11-09T14:57:56.547Z,96276.16
2022-11-09T14:59:34.696Z,96279.13
2022-11-09T15:01:09.645Z,96277.56
2022-11-09T15:02:44.861Z,96285.59
2022-11-09T15:04:22.423Z,96283.69
2022-11-09T15:06:06.874Z,96287.06
2022-11-09T15:07:49.330Z,96293.19
2022-11-09T15:09:24.606Z,96297.75
2022-11-09T15:10:59.815Z,96298.88
2022-11-09T15:12:32.784Z,96299.66
2022-11-09T15:14:14.038Z,96285.94
2022-11-09T15:15:54.189Z,96283.28
2022-11-09T15:17:31.271Z,96285.16
2022-11-09T15:19:05.348Z,96278.63
2022-11-09T15:20:40.004Z,96279.75
2022-11-09T15:23:12.008Z,96286.56
2022-11-09T15:25:41.914Z,96293.72
2022-11-09T15:28:39.021Z,96303.28
2022-11-09T15:35:22.393Z,96297.09
2022-11-09T16:02:39.773Z,96326.16
2022-11-09T16:12:32.527Z,96338.81
2022-11-09T16:14:05.297Z,96327.22
2022-11-09T16:15:39.070Z,96337.19
2022-11-09T16:17:11.314Z,96337.56
2022-11-09T16:18:43.895Z,96333.25
2022-11-09T16:20:16.415Z,96340.22
2022-11-09T16:21:48.537Z,96341.34
2022-11-09T16:23:23.861Z,96341.78
2022-11-09T16:24:55.852Z,96340.50
2022-11-09T16:26:27.918Z,96341.19
2022-11-09T16:28:01.863Z,96348.16
2022-11-09T16:29:34.008Z,96348.16
2022-11-09T16:31:06.459Z,96352.28
2022-11-09T16:32:38.464Z,96356.84
2022-11-09T16:34:10.715Z,96354.78
2022-11-09T16:35:42.790Z,96359.00
2022-11-09T16:37:17.495Z,96368.91
2022-11-09T16:38:50.799Z,96366.66
2022-11-09T16:40:29.145Z,96372.09
2022-11-09T16:42:02.429Z,96370.56
2022-11-09T16:43:35.837Z,96372.09
2022-11-09T16:45:09.873Z,96374.78
2022-11-09T16:48:28.167Z,96381.66
2022-11-09T16:50:00.017Z,96396.22
2022-11-09T16:51:31.862Z,96401.19
2022-11-09T16:53:03.647Z,96413.34
2022-11-09T16:54:35.433Z,96401.19
2022-11-09T16:56:07.754Z,96416.94
2022-11-09T16:57:39.621Z,96424.09
2022-11-09T16:59:13.046Z,96420.81
2022-11-09T17:01:08.801Z,96426.09
2022-11-09T17:02:42.074Z,96429.53
2022-11-09T17:04:14.164Z,96435.91
2022-11-09T17:05:45.892Z,96429.38
2022-11-09T17:07:17.636Z,96424.88
2022-11-09T17:08:51.740Z,96433.50
2022-11-09T17:10:25.880Z,96438.06
2022-11-09T17:11:57.689Z,96433.03
2022-11-09T17:13:29.503Z,96437.72
2022-11-09T17:15:02.962Z,96436.53
2022-11-09T17:16:36.043Z,96447.19
2022-11-09T17:18:09.933Z,96452.28
2022-11-09T17:19:41.672Z,96454.69
2022-11-09T17:21:14.499Z,96452.63
2022-11-09T17:22:46.572Z,96450.97
2022-11-09T17:24:18.362Z,96456.75
2022-11-09T17:25:56.723Z,96454.84
2022-11-09T17:27:28.713Z,96459.50
2022-11-09T17:29:03.346Z,96462.88
2022-11-09T17:30:42.818Z,96458.66
2022-11-09T17:32:17.059Z,96465.97
2022-11-09T17:34:07.399Z,96470.88
2022-11-09T17:35:41.304Z,96472.09
2022-11-09T17:37:13.047Z,96470.88
2022-11-09T17:38:44.876Z,96473.53
2022-11-09T17:40:19.817Z,96482.34
2022-11-09T17:42:02.025Z,96478.88
2022-11-09T17:43:34.967Z,96482.69
2022-11-09T17:46:54.781Z,96479.53
2022-11-09T17:48:26.558Z,96489.09
2022-11-09T17:50:01.321Z,96493.66
2022-11-09T17:51:33.221Z,96495.56
2022-11-09T17:53:04.965Z,96497.03
2022-11-09T17:54:37.406Z,96496.44
2022-11-09T17:56:12.127Z,96510.81
2022-11-09T17:57:52.748Z,96502.38
2022-11-09T17:59:27.256Z,96506.25
2022-11-09T18:03:11.338Z,96500.47
2022-11-09T18:04:45.664Z,96503.16
2022-11-09T18:06:19.253Z,96509.16
2022-11-09T18:07:55.719Z,96508.13
2022-11-09T18:09:45.216Z,96510.81
2022-11-09T18:11:19.528Z,96508.59
2022-11-09T18:12:51.272Z,96508.13
2022-11-09T18:14:25.764Z,96512.03
2022-11-09T18:15:59.855Z,96509.25
2022-11-09T18:17:31.568Z,96515.38
2022-11-09T18:19:04.863Z,96517.25
2022-11-09T18:20:37.530Z,96515.38
2022-11-09T18:22:13.016Z,96522.25
2022-11-09T18:23:45.179Z,96517.69
2022-11-09T18:25:19.636Z,96524.16
2022-11-09T18:26:51.357Z,96528.38
2022-11-09T18:28:23.319Z,96524.94
2022-11-09T18:29:56.579Z,96526.47
2022-11-09T18:31:30.572Z,96532.28
2022-11-09T18:33:03.536Z,96523.81
2022-11-09T18:34:36.751Z,96525.28
2022-11-09T18:36:11.509Z,96528.38
2022-11-09T18:37:45.461Z,96528.38
2022-11-09T18:39:17.594Z,96528.72
2022-11-09T18:41:02.601Z,96532.16
2022-11-09T18:42:40.475Z,96536.72
2022-11-09T18:44:12.236Z,96536.06
2022-11-09T18:45:46.345Z,96535.59
2022-11-09T18:47:18.350Z,96537.50
2022-11-09T18:48:50.676Z,96534.06
2022-11-09T18:50:24.101Z,96535.94
2022-11-09T18:51:56.223Z,96539.81
2022-11-09T18:53:28.952Z,96546.97
2022-11-09T18:55:00.828Z,96548.88
2022-11-09T18:56:32.656Z,96544.38
2022-11-09T18:58:04.431Z,96541.41
2022-11-09T18:59:40.063Z,96555.06
2022-11-09T19:01:11.828Z,96548.94
2022-11-09T19:02:43.700Z,96563.06
2022-11-09T19:04:16.065Z,96552.09
2022-11-09T19:05:49.292Z,96557.84
2022-11-09T19:07:21.207Z,96557.59
2022-11-09T19:09:11.701Z,96554.50
2022-11-09T19:10:43.403Z,96555.63
2022-11-09T19:12:15.330Z,96556.75
2022-11-09T19:13:47.157Z,96557.09
2022-11-09T19:15:18.926Z,96560.09
2022-11-09T19:16:51.238Z,96556.75
2022-11-09T19:18:23.233Z,96565.09
2022-11-09T19:19:55.366Z,96560.19
2022-11-09T19:21:40.174Z,96563.63
2022-11-09T19:23:12.075Z,96568.63